createdAt,value
2023-05-01T00:00:57.610Z,10.10
2023-05-01T00:03:24.935Z,10.00
2023-05-01T00:05:52.159Z,10.00
2023-05-01T00:08:19.121Z,10.00
2023-05-01T00:10:46.636Z,10.10
2023-05-01T00:13:13.589Z,10.00
2023-05-01T00:15:42.442Z,10.10
2023-05-01T00:18:09.529Z,10.10
2023-05-01T00:20:36.585Z,10.10
2023-05-01T00:23:03.492Z,10.10
2023-05-01T00:25:31.417Z,10.10
2023-05-01T00:27:59.841Z,10.00
2023-05-01T00:30:27.844Z,10.00
2023-05-01T00:32:54.945Z,9.90
2023-05-01T00:35:21.958Z,9.90
2023-05-01T00:37:51.952Z,9.80
2023-05-01T00:40:19.143Z,9.80
2023-05-01T00:42:46.244Z,9.80
2023-05-01T00:45:14.412Z,9.80
2023-05-01T00:47:41.359Z,9.80
2023-05-01T00:50:09.192Z,9.80
2023-05-01T00:52:36.237Z,9.80
2023-05-01T00:55:05.447Z,9.80
2023-05-01T00:57:33.310Z,9.70
2023-05-01T01:00:00.295Z,9.70
2023-05-01T01:02:27.434Z,9.70
2023-05-01T01:04:54.725Z,9.70
2023-05-01T01:07:47.892Z,9.70
2023-05-01T01:10:29.716Z,9.70
2023-05-01T01:13:33.528Z,9.70
2023-05-01T01:16:08.473Z,9.70
2023-05-01T01:18:52.989Z,9.70
2023-05-01T01:21:38.623Z,9.70
2023-05-01T01:24:26.157Z,9.70
2023-05-01T01:27:08.102Z,9.70
2023-05-01T01:29:36.574Z,9.70
2023-05-01T01:32:37.410Z,9.70
2023-05-01T01:35:09.068Z,9.70
2023-05-01T01:37:54.457Z,9.70
2023-05-01T01:40:29.133Z,9.70
2023-05-01T01:43:02.406Z,9.70
2023-05-01T01:45:41.309Z,9.70
2023-05-01T01:48:13.293Z,9.70
2023-05-01T01:50:42.565Z,9.70
2023-05-01T01:53:11.964Z,9.70
2023-05-01T01:55:41.473Z,9.70
2023-05-01T01:58:10.640Z,9.70
2023-05-01T02:00:41.295Z,9.70
2023-05-01T02:03:10.567Z,9.60
2023-05-01T02:05:40.892Z,9.70
2023-05-01T02:08:09.686Z,9.70
2023-05-01T02:10:37.279Z,9.70
2023-05-01T02:13:05.360Z,9.70
2023-05-01T02:15:34.252Z,9.70
2023-05-01T02:18:06.499Z,9.70
2023-05-01T02:20:34.135Z,9.70
2023-05-01T02:23:02.168Z,9.60
2023-05-01T02:25:31.785Z,9.60
2023-05-01T02:28:06.981Z,9.60
2023-05-01T02:30:34.136Z,9.60
2023-05-01T02:33:01.085Z,9.50
2023-05-01T02:35:28.087Z,9.50
2023-05-01T02:37:55.072Z,9.50
2023-05-01T02:40:22.162Z,9.50
2023-05-01T02:42:51.649Z,9.50
2023-05-01T02:45:22.030Z,9.50
2023-05-01T02:47:51.927Z,9.60
2023-05-01T02:50:20.257Z,9.60
2023-05-01T02:52:48.089Z,9.60
2023-05-01T02:55:15.619Z,9.60
2023-05-01T02:57:42.585Z,9.60
2023-05-01T03:00:13.392Z,9.60
2023-05-01T03:02:41.038Z,9.70
2023-05-01T03:05:08.685Z,9.70
2023-05-01T03:07:36.191Z,9.70
2023-05-01T03:10:05.018Z,9.70
2023-05-01T03:12:32.000Z,9.70
2023-05-01T03:14:59.069Z,9.60
2023-05-01T03:17:26.319Z,9.60
2023-05-01T03:19:53.545Z,9.70
2023-05-01T03:22:20.669Z,9.60
2023-05-01T03:24:47.918Z,9.50
2023-05-01T03:27:14.877Z,9.60
2023-05-01T03:29:41.787Z,9.50
2023-05-01T03:32:08.797Z,9.50
2023-05-01T03:34:36.228Z,9.50
2023-05-01T03:37:03.140Z,9.50
2023-05-01T03:39:30.864Z,9.50
2023-05-01T03:41:59.126Z,9.50
2023-05-01T03:44:26.205Z,9.50
2023-05-01T03:46:53.192Z,9.50
2023-05-01T03:49:20.609Z,9.50
2023-05-01T03:51:47.535Z,9.40
2023-05-01T03:54:14.607Z,9.40
2023-05-01T03:56:41.483Z,9.40
2023-05-01T03:59:08.411Z,10.70
2023-05-01T04:01:35.388Z,9.50
2023-05-01T04:04:02.536Z,9.50
2023-05-01T04:06:29.995Z,9.50
2023-05-01T04:08:56.957Z,9.60
2023-05-01T04:11:24.115Z,9.50
2023-05-01T04:13:50.991Z,9.50
2023-05-01T04:16:18.321Z,9.50
2023-05-01T04:18:45.206Z,9.50
2023-05-01T04:21:14.608Z,9.50
2023-05-01T04:23:41.623Z,9.50
2023-05-01T04:26:09.319Z,9.50
2023-05-01T04:28:36.143Z,9.50
2023-05-01T04:31:03.171Z,9.50
2023-05-01T04:33:30.216Z,9.50
2023-05-01T04:35:57.278Z,9.50
2023-05-01T04:38:24.231Z,9.50
2023-05-01T04:40:52.480Z,9.40
2023-05-01T04:43:19.475Z,9.40
2023-05-01T04:45:46.538Z,9.40
2023-05-01T04:48:13.675Z,9.40
2023-05-01T04:50:40.888Z,9.40
2023-05-01T04:53:08.755Z,9.40
2023-05-01T04:55:36.548Z,9.40
2023-05-01T04:58:06.719Z,9.40
2023-05-01T05:00:34.127Z,9.50
2023-05-01T05:03:01.463Z,9.50
2023-05-01T05:05:28.883Z,9.50
2023-05-01T05:07:55.836Z,9.50
2023-05-01T05:10:23.060Z,9.50
2023-05-01T05:12:49.972Z,9.50
2023-05-01T05:15:17.001Z,9.50
2023-05-01T05:17:43.983Z,9.60
2023-05-01T05:20:11.449Z,9.60
2023-05-01T05:22:38.539Z,9.70
2023-05-01T05:25:06.842Z,9.70
2023-05-01T05:27:38.058Z,9.70
2023-05-01T05:30:08.558Z,9.80
2023-05-01T05:32:35.704Z,9.80
2023-05-01T05:35:03.034Z,9.80
2023-05-01T05:37:29.996Z,9.90
2023-05-01T05:39:57.814Z,9.90
2023-05-01T05:42:24.988Z,9.90
2023-05-01T05:44:52.082Z,9.90
2023-05-01T05:47:19.197Z,10.00
2023-05-01T05:49:46.339Z,10.00
2023-05-01T05:52:13.743Z,10.00
2023-05-01T05:54:40.746Z,10.10
2023-05-01T05:57:07.917Z,10.10
2023-05-01T05:59:35.445Z,10.10
2023-05-01T06:02:02.761Z,10.10
2023-05-01T06:04:29.783Z,10.20
2023-05-01T06:06:57.854Z,10.20
2023-05-01T06:09:25.211Z,10.20
2023-05-01T06:11:52.370Z,10.30
2023-05-01T06:14:19.752Z,10.30
2023-05-01T06:16:46.877Z,10.30
2023-05-01T06:19:14.113Z,10.40
2023-05-01T06:21:41.351Z,10.40
2023-05-01T06:24:08.549Z,10.40
2023-05-01T06:26:35.694Z,10.50
2023-05-01T06:29:02.813Z,10.60
2023-05-01T06:31:30.015Z,10.60
2023-05-01T06:33:57.005Z,10.60
2023-05-01T06:36:23.978Z,10.70
2023-05-01T06:38:50.941Z,10.80
2023-05-01T06:41:18.071Z,10.80
2023-05-01T06:43:45.005Z,10.90
2023-05-01T06:46:12.686Z,10.90
2023-05-01T06:48:39.947Z,10.90
2023-05-01T06:51:07.206Z,10.90
2023-05-01T06:53:34.332Z,11.00
2023-05-01T06:56:01.405Z,11.00
2023-05-01T06:58:28.453Z,11.00
2023-05-01T07:00:55.594Z,11.00
2023-05-01T07:03:23.190Z,11.00
2023-05-01T07:05:50.364Z,11.00
2023-05-01T07:08:17.337Z,11.10
2023-05-01T07:10:44.575Z,11.10
2023-05-01T07:13:11.538Z,11.10
2023-05-01T07:15:38.594Z,11.10
2023-05-01T07:18:08.760Z,11.20
2023-05-01T07:20:35.987Z,11.20
2023-05-01T07:23:04.251Z,11.20
2023-05-01T07:25:33.255Z,11.10
2023-05-01T07:28:02.791Z,11.10
2023-05-01T07:30:30.534Z,11.10
2023-05-01T07:32:58.077Z,11.20
2023-05-01T07:35:25.691Z,11.20
2023-05-01T07:37:52.892Z,11.30
2023-05-01T07:40:19.963Z,11.30
2023-05-01T07:42:47.176Z,11.40
2023-05-01T07:45:14.649Z,11.40
2023-05-01T07:47:41.749Z,11.50
2023-05-01T07:50:13.121Z,11.60
2023-05-01T07:52:40.236Z,11.60
2023-05-01T07:55:08.905Z,11.70
2023-05-01T07:57:36.471Z,11.80
2023-05-01T08:00:04.266Z,11.80
2023-05-01T08:02:31.447Z,11.80
2023-05-01T08:04:58.760Z,11.80
2023-05-01T08:07:25.912Z,11.90
2023-05-01T08:09:53.128Z,11.90
2023-05-01T08:12:20.081Z,11.80
2023-05-01T08:14:47.264Z,11.80
2023-05-01T08:17:14.383Z,11.80
2023-05-01T08:19:41.578Z,11.80
2023-05-01T08:22:09.007Z,11.80
2023-05-01T08:24:36.021Z,11.90
2023-05-01T08:27:03.270Z,11.90
2023-05-01T08:29:30.278Z,11.90
2023-05-01T08:31:59.138Z,11.90
2023-05-01T08:34:26.878Z,12.00
2023-05-01T08:36:53.953Z,12.00
2023-05-01T08:39:21.192Z,12.00
2023-05-01T08:41:48.795Z,12.10
2023-05-01T08:44:16.943Z,12.10
2023-05-01T08:46:48.115Z,12.10
2023-05-01T08:49:19.782Z,12.10
2023-05-01T08:51:48.133Z,12.10
2023-05-01T08:54:16.749Z,12.20
2023-05-01T08:56:47.948Z,12.30
2023-05-01T08:59:15.916Z,12.40
2023-05-01T09:01:44.432Z,12.40
2023-05-01T09:04:12.469Z,12.50
2023-05-01T09:06:40.329Z,12.70
2023-05-01T09:09:08.259Z,12.70
2023-05-01T09:11:35.425Z,12.80
2023-05-01T09:14:08.489Z,12.90
2023-05-01T09:16:35.677Z,13.20
2023-05-01T09:19:02.729Z,13.30
2023-05-01T09:21:32.150Z,13.40
2023-05-01T09:23:59.319Z,13.50
2023-05-01T09:26:26.905Z,13.60
2023-05-01T09:28:58.146Z,13.60
2023-05-01T09:31:28.767Z,13.60
2023-05-01T09:34:03.875Z,13.60
2023-05-01T09:36:32.645Z,13.70
2023-05-01T09:39:00.975Z,13.70
2023-05-01T09:41:28.836Z,13.70
2023-05-01T09:43:57.310Z,13.80
2023-05-01T09:46:26.019Z,13.80
2023-05-01T09:48:58.892Z,13.80
2023-05-01T09:51:31.654Z,13.70
2023-05-01T09:54:04.478Z,13.70
2023-05-01T09:56:34.023Z,13.70
2023-05-01T09:59:21.809Z,13.70
2023-05-01T10:01:50.910Z,13.80
2023-05-01T10:04:29.748Z,13.80
2023-05-01T10:06:58.070Z,13.90
2023-05-01T10:09:29.896Z,13.90
2023-05-01T10:14:28.492Z,14.00
2023-05-01T10:16:58.306Z,14.10
2023-05-01T10:19:26.074Z,14.00
2023-05-01T10:21:53.539Z,13.90
2023-05-01T10:24:20.662Z,13.90
2023-05-01T10:26:49.286Z,13.80
2023-05-01T10:29:17.466Z,13.70
2023-05-01T10:31:44.932Z,13.70
2023-05-01T10:34:16.877Z,13.70
2023-05-01T10:36:49.489Z,13.70
2023-05-01T10:39:32.323Z,13.70
2023-05-01T10:41:59.418Z,13.70
2023-05-01T10:44:27.390Z,13.80
2023-05-01T10:46:55.329Z,13.80
2023-05-01T10:49:22.691Z,13.80
2023-05-01T10:51:58.963Z,13.80
2023-05-01T10:54:27.068Z,13.80
2023-05-01T10:56:56.017Z,13.80
2023-05-01T10:59:23.458Z,13.70
2023-05-01T11:01:54.823Z,13.70
2023-05-01T11:04:22.147Z,13.70
2023-05-01T11:07:08.746Z,13.70
2023-05-01T11:09:38.817Z,13.70
2023-05-01T11:12:07.468Z,13.70
2023-05-01T11:14:57.559Z,13.70
2023-05-01T11:17:43.384Z,13.70
2023-05-01T11:20:36.779Z,13.70
2023-05-01T11:23:03.716Z,13.70
2023-05-01T11:25:31.965Z,13.60
2023-05-01T11:28:01.875Z,13.60
2023-05-01T11:30:39.691Z,13.60
2023-05-01T11:33:10.125Z,13.70
2023-05-01T11:35:38.973Z,13.70
2023-05-01T11:38:06.272Z,13.70
2023-05-01T11:40:35.172Z,13.80
2023-05-01T11:43:04.232Z,13.80
2023-05-01T11:45:33.096Z,13.90
2023-05-01T11:48:02.996Z,13.90
2023-05-01T11:50:38.303Z,13.90
2023-05-01T11:53:17.676Z,14.00
2023-05-01T11:55:45.602Z,14.10
2023-05-01T11:58:13.168Z,14.20
2023-05-01T12:00:42.683Z,14.30
2023-05-01T12:03:14.993Z,14.50
2023-05-01T12:05:44.010Z,14.70
2023-05-01T12:08:15.352Z,14.80
2023-05-01T12:10:43.939Z,14.80
2023-05-01T12:13:15.682Z,14.90
2023-05-01T12:15:45.258Z,14.90
2023-05-01T12:18:13.578Z,14.90
2023-05-01T12:21:01.376Z,14.90
2023-05-01T12:23:35.905Z,14.90
2023-05-01T12:26:15.371Z,14.90
2023-05-01T12:28:53.869Z,14.90
2023-05-01T12:31:21.253Z,14.90
2023-05-01T12:33:58.613Z,14.90
2023-05-01T12:36:27.592Z,14.90
2023-05-01T12:39:04.168Z,14.80
2023-05-01T12:41:45.811Z,14.80
2023-05-01T12:44:19.991Z,14.70
2023-05-01T12:47:01.375Z,14.70
2023-05-01T12:49:30.101Z,14.70
2023-05-01T12:51:58.238Z,14.80
2023-05-01T12:54:39.277Z,14.80
2023-05-01T12:57:14.922Z,14.90
2023-05-01T12:59:44.495Z,15.00
2023-05-01T13:02:17.180Z,15.10
2023-05-01T13:04:44.929Z,15.10
2023-05-01T13:07:12.850Z,15.20
2023-05-01T13:09:39.733Z,15.30
2023-05-01T13:12:09.142Z,15.40
2023-05-01T13:14:41.945Z,15.40
2023-05-01T13:17:10.116Z,15.40
2023-05-01T13:19:37.950Z,15.40
2023-05-01T13:22:07.915Z,15.40
2023-05-01T13:24:39.181Z,15.40
2023-05-01T13:27:06.504Z,15.50
2023-05-01T13:29:33.834Z,15.60
2023-05-01T13:32:03.597Z,15.70
2023-05-01T13:34:33.157Z,15.80
2023-05-01T13:37:02.105Z,15.80
2023-05-01T13:39:29.465Z,15.90
2023-05-01T13:41:56.617Z,16.10
2023-05-01T13:44:23.596Z,16.20
2023-05-01T13:46:50.755Z,16.40
2023-05-01T13:49:22.813Z,16.60
2023-05-01T13:51:50.119Z,16.60
2023-05-01T13:54:17.980Z,16.70
2023-05-01T13:56:45.078Z,16.70
2023-05-01T13:59:12.053Z,16.70
2023-05-01T14:01:46.097Z,16.60
2023-05-01T14:04:18.564Z,16.50
2023-05-01T14:06:48.585Z,16.30
2023-05-01T14:09:18.651Z,16.20
2023-05-01T14:11:47.367Z,16.10
2023-05-01T14:14:18.626Z,16.10
2023-05-01T14:16:52.555Z,16.10
2023-05-01T14:19:19.644Z,15.70
2023-05-01T14:21:47.172Z,15.20
2023-05-01T14:24:18.093Z,14.50
2023-05-01T14:26:48.183Z,14.30
2023-05-01T14:29:26.824Z,14.00
2023-05-01T14:31:55.973Z,13.50
2023-05-01T14:34:24.326Z,13.20
2023-05-01T14:36:51.442Z,12.90
2023-05-01T14:39:18.991Z,12.60
2023-05-01T14:41:47.507Z,12.40
2023-05-01T14:44:17.925Z,12.40
2023-05-01T14:46:51.461Z,12.60
2023-05-01T14:49:21.599Z,12.80
2023-05-01T14:51:49.348Z,13.10
2023-05-01T14:54:16.641Z,13.30
2023-05-01T14:56:44.136Z,13.40
2023-05-01T14:59:11.264Z,13.50
2023-05-01T15:01:39.001Z,13.50
2023-05-01T15:04:07.671Z,13.50
2023-05-01T15:06:34.904Z,13.50
2023-05-01T15:09:04.585Z,13.60
2023-05-01T15:11:31.798Z,13.50
2023-05-01T15:13:58.752Z,13.60
2023-05-01T15:16:26.647Z,13.60
2023-05-01T15:18:53.712Z,13.60
2023-05-01T15:21:20.846Z,13.70
2023-05-01T15:23:47.796Z,13.70
2023-05-01T15:26:15.218Z,13.80
2023-05-01T15:28:42.335Z,13.90
2023-05-01T15:31:09.374Z,14.10
2023-05-01T15:33:36.401Z,14.30
2023-05-01T15:36:03.498Z,14.40
2023-05-01T15:38:30.540Z,14.40
2023-05-01T15:40:57.606Z,14.40
2023-05-01T15:43:24.521Z,14.30
2023-05-01T15:45:51.980Z,14.30
2023-05-01T15:48:19.409Z,14.30
2023-05-01T15:50:48.757Z,14.30
2023-05-01T15:53:17.171Z,14.30
2023-05-01T15:55:44.296Z,14.10
2023-05-01T15:58:11.667Z,14.00
2023-05-01T16:00:39.911Z,14.00
2023-05-01T16:03:08.498Z,14.00
2023-05-01T16:05:37.196Z,13.90
2023-05-01T16:08:06.434Z,13.80
2023-05-01T16:10:37.454Z,13.70
2023-05-01T16:13:08.229Z,13.70
2023-05-01T16:15:37.281Z,13.60
2023-05-01T16:18:05.128Z,13.60
2023-05-01T16:20:43.747Z,13.60
2023-05-01T16:23:12.205Z,13.60
2023-05-01T16:25:45.816Z,13.70
2023-05-01T16:28:14.464Z,13.50
2023-05-01T16:30:45.126Z,13.50
2023-05-01T16:33:18.804Z,13.50
2023-05-01T16:35:50.055Z,13.50
2023-05-01T16:38:18.143Z,13.40
2023-05-01T16:40:48.597Z,13.40
2023-05-01T16:43:15.755Z,13.30
2023-05-01T16:45:42.818Z,13.20
2023-05-01T16:48:10.262Z,13.10
2023-05-01T16:50:40.607Z,13.00
2023-05-01T16:53:07.596Z,13.00
2023-05-01T16:55:34.956Z,13.00
2023-05-01T16:58:01.931Z,12.90
2023-05-01T17:00:29.471Z,15.20
2023-05-01T17:02:59.026Z,12.90
2023-05-01T17:05:26.481Z,13.00
2023-05-01T17:07:54.011Z,13.00
2023-05-01T17:10:20.875Z,13.10
2023-05-01T17:12:48.067Z,13.10
2023-05-01T17:15:15.180Z,13.10
2023-05-01T17:17:42.115Z,13.20
2023-05-01T17:20:09.953Z,13.20
2023-05-01T17:22:37.029Z,13.20
2023-05-01T17:25:04.367Z,13.20
2023-05-01T17:27:31.960Z,13.20
2023-05-01T17:29:59.204Z,13.20
2023-05-01T17:32:36.500Z,13.20
2023-05-01T17:35:04.850Z,13.30
2023-05-01T17:37:31.864Z,13.30
2023-05-01T17:39:59.229Z,13.40
2023-05-01T17:42:26.460Z,13.40
2023-05-01T17:44:53.535Z,13.50
2023-05-01T17:47:20.478Z,13.50
2023-05-01T17:49:47.352Z,13.50
2023-05-01T17:52:14.639Z,13.50
2023-05-01T17:54:41.565Z,13.60
2023-05-01T17:57:08.608Z,13.60
2023-05-01T17:59:35.908Z,13.60
2023-05-01T18:02:03.790Z,13.70
2023-05-01T18:04:30.814Z,13.70
2023-05-01T18:06:58.229Z,13.70
2023-05-01T18:09:25.417Z,13.60
2023-05-01T18:11:52.353Z,13.60
2023-05-01T18:14:19.455Z,13.50
2023-05-01T18:16:46.612Z,13.50
2023-05-01T18:19:13.552Z,13.50
2023-05-01T18:21:40.643Z,13.40
2023-05-01T18:24:07.664Z,13.40
2023-05-01T18:26:35.512Z,13.30
2023-05-01T18:29:02.650Z,13.30
2023-05-01T18:31:29.624Z,13.20
2023-05-01T18:33:56.909Z,13.00
2023-05-01T18:36:24.014Z,13.00
2023-05-01T18:38:51.068Z,13.00
2023-05-01T18:41:19.513Z,13.00
2023-05-01T18:43:46.398Z,12.90
2023-05-01T18:46:13.583Z,12.90
2023-05-01T18:48:40.469Z,12.80
2023-05-01T18:51:09.313Z,12.80
2023-05-01T18:53:36.696Z,12.70
2023-05-01T18:56:03.860Z,12.50
2023-05-01T18:58:31.140Z,12.60
2023-05-01T19:00:58.209Z,12.60
2023-05-01T19:03:25.102Z,12.50
2023-05-01T19:05:52.131Z,12.50
2023-05-01T19:08:19.088Z,12.50
2023-05-01T19:10:46.046Z,12.50
2023-05-01T19:13:12.977Z,12.60
2023-05-01T19:15:40.030Z,12.40
2023-05-01T19:18:07.320Z,12.40
2023-05-01T19:20:34.385Z,12.30
2023-05-01T19:23:01.611Z,12.20
2023-05-01T19:25:29.498Z,12.20
2023-05-01T19:27:57.372Z,12.00
2023-05-01T19:30:24.499Z,12.00
2023-05-01T19:32:52.079Z,12.00
2023-05-01T19:35:19.430Z,12.00
2023-05-01T19:37:58.761Z,12.00
2023-05-01T19:40:26.247Z,11.90
2023-05-01T19:42:53.208Z,11.80
2023-05-01T19:45:20.247Z,11.70
2023-05-01T19:47:47.387Z,11.60
2023-05-01T19:50:18.292Z,11.60
2023-05-01T19:52:45.337Z,11.50
2023-05-01T19:55:13.288Z,11.50
2023-05-01T19:57:40.454Z,11.60
2023-05-01T20:00:08.533Z,11.50
2023-05-01T20:02:35.627Z,11.50
2023-05-01T20:05:02.678Z,11.50
2023-05-01T20:07:30.382Z,11.40
2023-05-01T20:09:57.627Z,11.30
2023-05-01T20:12:24.680Z,11.30
2023-05-01T20:14:51.903Z,11.20
2023-05-01T20:17:18.806Z,11.10
2023-05-01T20:19:45.849Z,11.00
2023-05-01T20:22:12.915Z,10.90
2023-05-01T20:24:40.206Z,10.80
2023-05-01T20:27:07.347Z,10.70
2023-05-01T20:29:34.285Z,10.60
2023-05-01T20:32:01.206Z,10.50
2023-05-01T20:34:28.221Z,10.60
2023-05-01T20:36:55.327Z,10.60
2023-05-01T20:39:22.282Z,10.70
2023-05-01T20:41:49.542Z,10.80
2023-05-01T20:44:16.631Z,10.80
2023-05-01T20:46:44.560Z,10.80
2023-05-01T20:49:15.056Z,10.90
2023-05-01T20:51:43.026Z,10.90
2023-05-01T20:54:10.116Z,11.00
2023-05-01T20:56:37.090Z,10.90
2023-05-01T20:59:04.929Z,10.80
2023-05-01T21:01:32.408Z,10.90
2023-05-01T21:04:00.164Z,10.90
2023-05-01T21:06:27.413Z,10.90
2023-05-01T21:08:54.450Z,11.00
2023-05-01T21:11:21.366Z,11.00
2023-05-01T21:13:51.532Z,11.00
2023-05-01T21:16:19.755Z,11.00
2023-05-01T21:18:46.852Z,11.00
2023-05-01T21:21:15.805Z,11.00
2023-05-01T21:23:48.208Z,11.00
2023-05-01T21:26:15.921Z,11.00
2023-05-01T21:28:43.710Z,11.00
2023-05-01T21:31:14.047Z,11.00
2023-05-01T21:33:45.684Z,10.90
2023-05-01T21:36:16.475Z,10.90
2023-05-01T21:38:43.424Z,10.80
2023-05-01T21:41:13.888Z,10.80
2023-05-01T21:43:41.014Z,10.70
2023-05-01T21:46:14.029Z,10.70
2023-05-01T21:48:41.229Z,10.60
2023-05-01T21:51:08.357Z,10.60
2023-05-01T21:53:35.298Z,10.60
2023-05-01T21:56:02.441Z,10.60
2023-05-01T21:58:29.438Z,10.60
2023-05-01T22:00:56.650Z,10.50
2023-05-01T22:03:24.941Z,10.50
2023-05-01T22:05:53.093Z,10.50
2023-05-01T22:08:19.990Z,10.50
2023-05-01T22:10:46.896Z,10.50
2023-05-01T22:13:13.858Z,10.50
2023-05-01T22:15:41.013Z,10.40
2023-05-01T22:18:08.443Z,10.40
2023-05-01T22:20:35.598Z,10.40
2023-05-01T22:23:02.620Z,10.30
2023-05-01T22:25:29.546Z,10.30
2023-05-01T22:27:56.549Z,10.20
2023-05-01T22:30:23.519Z,10.10
2023-05-01T22:32:50.497Z,10.10
2023-05-01T22:35:17.730Z,10.10
2023-05-01T22:37:44.614Z,10.10
2023-05-01T22:40:11.995Z,10.10
2023-05-01T22:42:38.931Z,10.10
2023-05-01T22:45:09.184Z,10.10
2023-05-01T22:47:36.203Z,10.10
2023-05-01T22:50:03.384Z,10.10
2023-05-01T22:52:30.487Z,10.10
2023-05-01T22:54:57.420Z,10.00
2023-05-01T22:57:24.332Z,9.90
2023-05-01T22:59:51.324Z,9.90
2023-05-01T23:02:18.958Z,9.80
2023-05-01T23:04:46.276Z,9.80
2023-05-01T23:07:16.200Z,9.80
2023-05-01T23:09:43.226Z,9.80
2023-05-01T23:12:18.401Z,9.70
2023-05-01T23:14:46.957Z,9.70
2023-05-01T23:17:14.937Z,9.70
2023-05-01T23:19:45.094Z,9.60
2023-05-01T23:22:13.688Z,9.60
2023-05-01T23:24:48.808Z,9.50
2023-05-01T23:27:17.260Z,9.50
2023-05-01T23:29:57.542Z,9.40
2023-05-01T23:32:27.043Z,9.40
2023-05-01T23:35:14.700Z,9.30
2023-05-01T23:37:42.053Z,9.30
2023-05-01T23:40:09.629Z,9.20
2023-05-01T23:42:38.247Z,9.20
2023-05-01T23:45:06.722Z,9.10
2023-05-01T23:47:34.127Z,9.10
2023-05-01T23:50:01.933Z,9.10
2023-05-01T23:52:29.386Z,9.00
2023-05-01T23:54:56.392Z,9.00
2023-05-01T23:57:23.821Z,9.00
2023-05-01T23:59:50.902Z,8.90
